createdAt,value
2022-12-09T00:02:06.240Z,12.95
2022-12-09T00:04:36.749Z,13.90
2022-12-09T00:07:06.214Z,12.98
2022-12-09T00:09:35.441Z,14.63
2022-12-09T00:12:04.821Z,15.10
2022-12-09T00:14:34.134Z,15.70
2022-12-09T00:17:03.326Z,16.85
2022-12-09T00:19:32.845Z,15.13
2022-12-09T00:22:01.973Z,14.25
2022-12-09T00:24:31.354Z,13.95
2022-12-09T00:27:00.433Z,12.35
2022-12-09T00:29:29.603Z,15.63
2022-12-09T00:31:58.790Z,12.65
2022-12-09T00:34:27.997Z,11.23
2022-12-09T00:36:57.093Z,12.68
2022-12-09T00:39:26.276Z,12.57
2022-12-09T00:41:55.470Z,14.52
2022-12-09T00:44:24.635Z,14.13
2022-12-09T00:46:54.077Z,15.40
2022-12-09T00:49:23.289Z,14.07
2022-12-09T00:51:55.112Z,15.07
2022-12-09T00:54:24.334Z,14.25
2022-12-09T00:56:53.689Z,12.52
2022-12-09T00:59:23.259Z,12.20
2022-12-09T01:01:52.424Z,11.13
2022-12-09T01:04:26.022Z,11.20
2022-12-09T01:06:55.396Z,8.88
2022-12-09T01:09:24.838Z,7.28
2022-12-09T01:11:54.184Z,7.95
2022-12-09T01:14:23.525Z,7.28
2022-12-09T01:16:52.877Z,6.80
2022-12-09T01:19:22.161Z,15.20
2022-12-09T01:21:51.453Z,7.20
2022-12-09T01:24:20.584Z,8.55
2022-12-09T01:26:49.757Z,7.53
2022-12-09T01:29:19.031Z,7.38
2022-12-09T01:31:48.653Z,7.22
2022-12-09T01:34:18.179Z,6.68
2022-12-09T01:36:49.101Z,8.43
2022-12-09T01:39:18.575Z,6.63
2022-12-09T01:41:52.327Z,6.82
2022-12-09T01:44:27.278Z,7.78
2022-12-09T01:47:00.168Z,7.38
2022-12-09T01:49:42.613Z,7.43
2022-12-09T01:52:35.239Z,4.80
2022-12-09T01:55:08.640Z,4.40
2022-12-09T01:57:44.498Z,4.45
2022-12-09T02:00:17.981Z,3.53
2022-12-09T02:02:51.802Z,2.88
2022-12-09T02:05:28.434Z,2.63
2022-12-09T02:07:58.074Z,3.58
2022-12-09T02:10:28.735Z,2.65
2022-12-09T02:13:37.572Z,2.80
2022-12-09T02:16:14.940Z,3.13
2022-12-09T02:19:25.750Z,3.88
2022-12-09T02:22:02.325Z,8.35
2022-12-09T02:24:55.539Z,2.10
2022-12-09T02:27:56.209Z,2.30
2022-12-09T02:30:34.604Z,1.92
2022-12-09T02:36:07.058Z,2.65
2022-12-09T02:38:39.353Z,1.75
2022-12-09T02:41:24.937Z,2.25
2022-12-09T02:44:04.835Z,1.75
2022-12-09T02:46:38.111Z,1.85
2022-12-09T02:49:08.649Z,1.60
2022-12-09T02:51:43.267Z,1.73
2022-12-09T02:54:18.787Z,2.78
2022-12-09T02:56:58.519Z,1.55
2022-12-09T02:59:27.813Z,1.30
2022-12-09T03:02:33.291Z,1.73
2022-12-09T03:05:48.733Z,1.52
2022-12-09T03:09:15.398Z,2.08
2022-12-09T03:11:45.599Z,1.40
2022-12-09T03:14:27.234Z,1.95
2022-12-09T03:17:30.316Z,1.92
2022-12-09T03:20:17.460Z,1.48
2022-12-09T03:22:50.848Z,2.00
2022-12-09T03:25:45.858Z,2.05
2022-12-09T03:28:35.079Z,1.45
2022-12-09T03:31:14.007Z,1.30
2022-12-09T03:33:52.056Z,1.30
2022-12-09T03:36:26.453Z,1.67
2022-12-09T03:38:57.048Z,1.88
2022-12-09T03:41:35.696Z,1.63
2022-12-09T03:44:20.099Z,1.15
2022-12-09T03:46:49.885Z,2.60
2022-12-09T03:49:19.800Z,1.48
2022-12-09T03:52:32.971Z,1.40
2022-12-09T03:55:12.865Z,1.33
2022-12-09T03:57:47.018Z,2.70
2022-12-09T04:00:18.937Z,1.60
2022-12-09T04:02:49.108Z,1.98
2022-12-09T04:05:19.139Z,3.65
2022-12-09T04:07:48.667Z,1.25
2022-12-09T04:10:18.051Z,1.00
2022-12-09T04:12:55.034Z,1.70
2022-12-09T04:15:24.352Z,1.90
2022-12-09T04:17:53.577Z,1.30
2022-12-09T04:20:22.851Z,1.55
2022-12-09T04:22:52.256Z,1.15
2022-12-09T04:25:21.732Z,1.65
2022-12-09T04:27:51.041Z,1.58
2022-12-09T04:30:20.764Z,1.38
2022-12-09T04:32:50.248Z,1.58
2022-12-09T04:35:19.452Z,1.67
2022-12-09T04:37:48.609Z,0.88
2022-12-09T04:40:22.988Z,1.38
2022-12-09T04:42:53.509Z,0.90
2022-12-09T04:45:23.284Z,0.75
2022-12-09T04:47:52.652Z,0.82
2022-12-09T04:50:22.359Z,0.88
2022-12-09T04:52:51.749Z,1.30
2022-12-09T04:55:21.914Z,0.80
2022-12-09T04:57:51.470Z,1.20
2022-12-09T05:00:21.650Z,0.98
2022-12-09T05:02:51.602Z,0.93
2022-12-09T05:05:21.392Z,0.90
2022-12-09T05:07:50.844Z,1.70
2022-12-09T05:10:20.833Z,1.15
2022-12-09T05:12:50.243Z,0.63
2022-12-09T05:15:19.618Z,0.85
2022-12-09T05:17:49.145Z,0.55
2022-12-09T05:20:18.826Z,0.82
2022-12-09T05:22:48.349Z,0.93
2022-12-09T05:25:18.004Z,0.80
2022-12-09T05:27:47.272Z,1.33
2022-12-09T05:30:16.917Z,1.08
2022-12-09T05:32:46.287Z,0.93
2022-12-09T05:35:15.964Z,1.20
2022-12-09T05:37:45.360Z,0.80
2022-12-09T05:40:15.087Z,1.10
2022-12-09T05:42:45.145Z,0.70
2022-12-09T05:45:15.578Z,0.95
2022-12-09T05:47:45.044Z,0.60
2022-12-09T05:50:15.345Z,1.50
2022-12-09T05:52:44.998Z,2.08
2022-12-09T05:55:14.840Z,1.15
2022-12-09T05:57:44.289Z,0.93
2022-12-09T06:00:15.686Z,1.25
2022-12-09T06:02:45.601Z,0.85
2022-12-09T06:05:15.727Z,1.30
2022-12-09T06:07:45.644Z,1.50
2022-12-09T06:10:15.304Z,0.90
2022-12-09T06:12:45.424Z,1.67
2022-12-09T06:15:20.273Z,0.93
2022-12-09T06:17:51.284Z,0.70
2022-12-09T06:20:21.155Z,1.08
2022-12-09T06:22:53.548Z,1.20
2022-12-09T06:25:23.275Z,0.80
2022-12-09T06:27:55.119Z,2.05
2022-12-09T06:30:24.601Z,1.65
2022-12-09T06:32:54.200Z,1.15
2022-12-09T06:35:23.621Z,1.23
2022-12-09T06:37:55.854Z,2.08
2022-12-09T06:40:25.410Z,1.15
2022-12-09T06:42:56.005Z,2.47
2022-12-09T06:45:25.403Z,1.40
2022-12-09T06:47:54.999Z,1.67
2022-12-09T06:50:24.377Z,1.35
2022-12-09T06:52:53.847Z,1.92
2022-12-09T06:55:23.406Z,1.42
2022-12-09T06:57:52.880Z,1.83
2022-12-09T07:00:22.778Z,1.45
2022-12-09T07:02:53.422Z,1.50
2022-12-09T07:05:23.336Z,2.17
2022-12-09T07:07:53.956Z,2.35
2022-12-09T07:10:23.805Z,2.70
2022-12-09T07:12:53.093Z,2.15
2022-12-09T07:15:22.885Z,1.98
2022-12-09T07:17:52.199Z,1.85
2022-12-09T07:20:22.329Z,1.42
2022-12-09T07:22:55.543Z,1.52
2022-12-09T07:25:25.066Z,2.83
2022-12-09T07:27:54.640Z,1.40
2022-12-09T07:30:23.965Z,1.10
2022-12-09T07:32:53.191Z,1.20
2022-12-09T07:35:23.205Z,1.08
2022-12-09T07:37:52.877Z,1.77
2022-12-09T07:40:22.131Z,0.85
2022-12-09T07:42:54.898Z,0.85
2022-12-09T07:45:28.631Z,0.60
2022-12-09T07:47:58.285Z,3.70
2022-12-09T07:50:27.720Z,0.95
2022-12-09T07:52:57.872Z,0.70
2022-12-09T07:55:27.548Z,0.93
2022-12-09T07:57:57.170Z,0.75
2022-12-09T08:00:26.668Z,0.95
2022-12-09T08:02:58.224Z,0.50
2022-12-09T08:05:28.383Z,0.55
2022-12-09T08:07:58.050Z,0.63
2022-12-09T08:10:28.139Z,1.00
2022-12-09T08:12:57.487Z,3.30
2022-12-09T08:15:26.752Z,1.02
2022-12-09T08:17:56.524Z,1.35
2022-12-09T08:20:29.441Z,2.55
2022-12-09T08:23:00.976Z,1.48
2022-12-09T08:25:30.864Z,1.40
2022-12-09T08:28:02.045Z,0.82
2022-12-09T08:30:31.622Z,1.02
2022-12-09T08:33:01.719Z,0.77
2022-12-09T08:35:31.303Z,1.13
2022-12-09T08:38:00.970Z,0.80
2022-12-09T08:40:30.270Z,0.40
2022-12-09T08:43:00.675Z,0.90
2022-12-09T08:45:30.256Z,4.20
2022-12-09T08:47:59.757Z,0.65
2022-12-09T08:50:29.076Z,0.57
2022-12-09T08:52:59.057Z,0.57
2022-12-09T08:55:31.308Z,0.70
2022-12-09T08:58:00.798Z,0.75
2022-12-09T09:00:30.397Z,0.50
2022-12-09T09:02:59.978Z,2.47
2022-12-09T09:05:30.050Z,1.45
2022-12-09T09:07:59.520Z,0.70
2022-12-09T09:10:31.034Z,0.70
2022-12-09T09:13:00.420Z,0.68
2022-12-09T09:15:29.695Z,0.95
2022-12-09T09:17:59.110Z,1.20
2022-12-09T09:20:28.911Z,0.50
2022-12-09T09:23:04.372Z,0.70
2022-12-09T09:25:33.916Z,0.70
2022-12-09T09:28:03.637Z,1.20
2022-12-09T09:30:33.138Z,0.95
2022-12-09T09:33:02.655Z,1.10
2022-12-09T09:35:32.354Z,1.52
2022-12-09T09:38:01.926Z,0.98
2022-12-09T09:40:34.007Z,0.68
2022-12-09T09:43:04.924Z,0.63
2022-12-09T09:45:34.115Z,1.05
2022-12-09T09:48:06.552Z,1.25
2022-12-09T09:50:42.940Z,1.60
2022-12-09T09:53:31.467Z,1.13
2022-12-09T09:56:09.015Z,1.73
2022-12-09T09:58:53.425Z,1.23
2022-12-09T10:01:29.789Z,1.30
2022-12-09T10:04:15.392Z,2.13
2022-12-09T10:07:07.402Z,2.40
2022-12-09T10:10:32.683Z,2.55
2022-12-09T10:13:57.475Z,3.47
2022-12-09T10:16:52.464Z,2.95
2022-12-09T10:19:56.326Z,2.50
2022-12-09T10:22:43.065Z,3.45
2022-12-09T10:25:27.849Z,5.68
2022-12-09T10:28:30.634Z,6.45
2022-12-09T10:31:00.110Z,4.00
2022-12-09T10:33:37.435Z,6.25
2022-12-09T10:36:20.900Z,2.90
2022-12-09T10:38:50.332Z,3.10
2022-12-09T10:42:01.634Z,3.95
2022-12-09T10:44:31.191Z,4.15
2022-12-09T10:47:09.578Z,4.10
2022-12-09T10:49:40.057Z,4.18
2022-12-09T10:52:10.003Z,2.97
2022-12-09T10:54:42.380Z,4.28
2022-12-09T10:57:17.215Z,4.93
2022-12-09T11:00:02.934Z,5.22
2022-12-09T11:02:34.846Z,4.60
2022-12-09T11:05:32.848Z,5.45
2022-12-09T11:10:33.381Z,5.22
2022-12-09T11:13:09.703Z,4.95
2022-12-09T11:15:46.018Z,5.18
2022-12-09T11:18:37.411Z,4.90
2022-12-09T11:21:29.119Z,5.50
2022-12-09T11:24:03.654Z,6.38
2022-12-09T11:26:40.103Z,6.35
2022-12-09T11:29:20.413Z,5.22
2022-12-09T11:31:51.517Z,5.75
2022-12-09T11:34:28.962Z,6.18
2022-12-09T11:37:00.219Z,7.40
2022-12-09T11:39:34.871Z,7.82
2022-12-09T11:42:25.631Z,6.70
2022-12-09T11:45:07.532Z,6.55
2022-12-09T11:50:36.064Z,7.78
2022-12-09T11:53:24.475Z,8.93
2022-12-09T11:56:08.522Z,9.38
2022-12-09T11:59:03.188Z,8.30
2022-12-09T12:01:59.681Z,7.95
2022-12-09T12:05:04.739Z,7.65
2022-12-09T12:08:40.109Z,7.82
2022-12-09T12:11:16.192Z,12.98
2022-12-09T12:13:59.463Z,11.75
2022-12-09T12:16:58.611Z,16.45
2022-12-09T12:19:40.952Z,14.75
2022-12-09T12:22:54.678Z,13.98
2022-12-09T12:25:55.225Z,15.13
2022-12-09T12:29:01.296Z,14.20
2022-12-09T12:32:08.057Z,12.60
2022-12-09T12:34:51.772Z,13.93
2022-12-09T12:38:15.692Z,14.05
2022-12-09T12:40:51.632Z,12.05
2022-12-09T12:44:24.972Z,11.20
2022-12-09T12:47:11.836Z,10.40
2022-12-09T12:50:01.654Z,11.77
2022-12-09T12:52:58.089Z,9.98
2022-12-09T12:56:04.438Z,11.57
2022-12-09T12:58:46.779Z,10.88
2022-12-09T13:02:10.330Z,11.57
2022-12-09T13:05:14.686Z,10.80
2022-12-09T13:08:10.845Z,9.73
2022-12-09T13:11:03.346Z,9.75
2022-12-09T13:13:57.019Z,9.70
2022-12-09T13:16:36.076Z,10.70
2022-12-09T13:19:44.742Z,11.27
2022-12-09T13:22:42.205Z,9.35
2022-12-09T13:25:46.047Z,11.20
2022-12-09T13:28:55.838Z,10.57
2022-12-09T13:31:32.922Z,10.80
2022-12-09T13:34:29.340Z,10.27
2022-12-09T13:36:58.489Z,10.55
2022-12-09T13:39:43.245Z,9.52
2022-12-09T13:42:48.763Z,9.88
2022-12-09T13:45:27.885Z,10.18
2022-12-09T13:48:05.443Z,9.32
2022-12-09T13:50:43.693Z,9.53
2022-12-09T13:53:21.753Z,10.32
2022-12-09T13:56:04.861Z,8.85
2022-12-09T13:59:23.492Z,9.65
2022-12-09T14:02:12.519Z,9.13
2022-12-09T14:05:00.296Z,10.50
2022-12-09T14:07:36.042Z,10.75
2022-12-09T14:10:06.527Z,9.07
2022-12-09T14:12:42.578Z,10.32
2022-12-09T14:15:37.207Z,11.90
2022-12-09T14:18:28.806Z,10.85
2022-12-09T14:21:19.406Z,10.73
2022-12-09T14:24:10.394Z,10.65
2022-12-09T14:27:00.996Z,11.50
2022-12-09T14:30:27.704Z,12.00
2022-12-09T14:32:58.676Z,14.52
2022-12-09T14:35:45.900Z,14.13
2022-12-09T14:39:23.842Z,16.67
2022-12-09T14:42:32.330Z,17.70
2022-12-09T14:45:31.016Z,16.65
2022-12-09T14:48:02.929Z,19.83
2022-12-09T14:50:32.103Z,20.60
2022-12-09T14:53:06.047Z,21.17
2022-12-09T14:55:43.008Z,19.60
2022-12-09T14:58:25.293Z,19.27
2022-12-09T15:01:08.337Z,17.77
2022-12-09T15:03:45.188Z,19.88
2022-12-09T15:06:21.761Z,22.25
2022-12-09T15:08:59.063Z,21.02
2022-12-09T15:11:37.357Z,21.42
2022-12-09T15:14:29.110Z,19.27
2022-12-09T15:16:59.738Z,20.83
2022-12-09T15:19:59.339Z,18.27
2022-12-09T15:22:32.441Z,18.42
2022-12-09T15:25:03.982Z,21.50
2022-12-09T15:27:33.312Z,17.65
2022-12-09T15:30:15.231Z,22.38
2022-12-09T15:32:46.453Z,17.58
2022-12-09T15:35:24.744Z,19.40
2022-12-09T15:37:58.953Z,17.88
2022-12-09T15:40:31.399Z,16.48
2022-12-09T15:43:07.462Z,16.45
2022-12-09T15:45:44.900Z,17.50
2022-12-09T15:48:22.120Z,16.52
2022-12-09T15:51:01.546Z,16.70
2022-12-09T15:53:57.134Z,15.07
2022-12-09T15:56:41.089Z,17.30
2022-12-09T15:59:28.331Z,15.35
2022-12-09T16:02:00.744Z,15.18
2022-12-09T16:04:48.821Z,17.83
2022-12-09T16:07:23.639Z,17.85
2022-12-09T16:10:15.595Z,17.65
2022-12-09T16:12:46.133Z,19.75
2022-12-09T16:15:44.354Z,17.98
2022-12-09T16:21:21.818Z,17.60
2022-12-09T16:23:58.207Z,21.77
2022-12-09T16:26:39.360Z,21.55
2022-12-09T16:29:38.034Z,17.08
2022-12-09T16:32:23.490Z,17.75
2022-12-09T16:35:00.416Z,18.48
2022-12-09T16:37:58.613Z,18.88
2022-12-09T16:43:18.098Z,17.83
2022-12-09T16:45:54.100Z,17.60
2022-12-09T16:48:26.148Z,17.52
2022-12-09T16:51:15.893Z,17.90
2022-12-09T16:53:50.275Z,18.17
2022-12-09T16:56:25.862Z,18.13
2022-12-09T16:58:56.933Z,17.58
2022-12-09T17:01:39.078Z,18.02
2022-12-09T17:04:29.514Z,16.85
2022-12-09T17:06:58.731Z,15.68
2022-12-09T17:09:27.834Z,16.85
2022-12-09T17:11:56.936Z,17.58
2022-12-09T17:14:26.023Z,17.38
2022-12-09T17:16:55.197Z,17.55
2022-12-09T17:19:24.450Z,16.25
2022-12-09T17:21:53.909Z,17.13
2022-12-09T17:24:22.974Z,17.08
2022-12-09T17:26:52.129Z,15.88
2022-12-09T17:29:21.428Z,16.23
2022-12-09T17:31:52.695Z,15.93
2022-12-09T17:34:21.957Z,16.00
2022-12-09T17:36:51.087Z,16.05
2022-12-09T17:39:21.247Z,15.55
2022-12-09T17:41:51.779Z,14.90
2022-12-09T17:44:22.321Z,15.75
2022-12-09T17:46:52.360Z,15.18
2022-12-09T17:49:22.409Z,15.35
2022-12-09T17:51:51.897Z,16.38
2022-12-09T17:54:21.059Z,15.95
2022-12-09T17:56:50.261Z,16.67
2022-12-09T17:59:21.264Z,15.85
2022-12-09T18:01:50.426Z,16.42
2022-12-09T18:04:20.450Z,15.65
2022-12-09T18:06:50.203Z,15.32
2022-12-09T18:09:21.384Z,16.65
2022-12-09T18:11:52.682Z,15.52
2022-12-09T18:14:22.486Z,15.48
2022-12-09T18:16:51.670Z,16.70
2022-12-09T18:19:24.372Z,16.25
2022-12-09T18:21:56.515Z,15.95
2022-12-09T18:24:26.096Z,16.00
2022-12-09T18:26:55.410Z,15.63
2022-12-09T18:29:25.731Z,18.15
2022-12-09T18:31:58.483Z,15.77
2022-12-09T18:34:33.350Z,15.75
2022-12-09T18:37:03.232Z,15.73
2022-12-09T18:39:32.456Z,15.43
2022-12-09T18:42:01.645Z,14.82
2022-12-09T18:44:30.840Z,14.38
2022-12-09T18:47:01.160Z,13.93
2022-12-09T18:49:30.725Z,15.27
2022-12-09T18:51:59.995Z,14.73
2022-12-09T18:54:33.398Z,13.55
2022-12-09T18:57:03.040Z,14.25
2022-12-09T18:59:32.922Z,14.45
2022-12-09T19:02:02.197Z,16.23
2022-12-09T19:04:32.711Z,14.93
2022-12-09T19:07:02.635Z,15.15
2022-12-09T19:09:35.697Z,14.65
2022-12-09T19:12:44.883Z,14.73
2022-12-09T19:14:56.773Z,13.63
2022-12-09T19:17:25.990Z,13.43
2022-12-09T19:19:55.129Z,15.05
2022-12-09T19:22:24.335Z,13.55
2022-12-09T19:24:53.497Z,14.13
2022-12-09T19:27:22.632Z,14.88
2022-12-09T19:29:51.828Z,13.38
2022-12-09T19:32:51.329Z,12.68
2022-12-09T19:35:10.616Z,14.23
2022-12-09T19:37:39.733Z,12.77
2022-12-09T19:40:10.277Z,12.65
2022-12-09T19:42:40.733Z,14.40
2022-12-09T19:45:13.923Z,12.95
2022-12-09T19:47:43.826Z,13.40
2022-12-09T19:50:12.992Z,13.15
2022-12-09T19:52:43.488Z,13.38
2022-12-09T19:55:14.331Z,13.45
2022-12-09T19:57:43.555Z,14.25
2022-12-09T20:00:13.922Z,12.77
2022-12-09T20:02:43.195Z,11.80
2022-12-09T20:05:13.419Z,12.13
2022-12-09T20:07:42.497Z,12.43
2022-12-09T20:10:12.311Z,12.80
2022-12-09T20:12:41.915Z,13.02
2022-12-09T20:15:11.739Z,11.52
2022-12-09T20:17:40.845Z,12.30
2022-12-09T20:20:11.502Z,12.75
2022-12-09T20:22:40.646Z,12.32
2022-12-09T20:25:10.329Z,12.40
2022-12-09T20:27:39.394Z,12.15
2022-12-09T20:30:09.840Z,12.25
2022-12-09T20:32:39.210Z,11.98
2022-12-09T20:35:09.485Z,11.98
2022-12-09T20:37:38.878Z,12.00
2022-12-09T20:40:09.298Z,12.00
2022-12-09T20:42:38.778Z,12.30
2022-12-09T20:45:09.130Z,12.93
2022-12-09T20:47:38.295Z,13.25
2022-12-09T20:50:08.449Z,11.70
2022-12-09T20:52:37.767Z,12.07
2022-12-09T20:55:07.470Z,13.45
2022-12-09T20:57:36.776Z,12.40
2022-12-09T21:00:06.977Z,15.52
2022-12-09T21:02:40.579Z,13.77
2022-12-09T21:05:11.015Z,13.73
2022-12-09T21:07:40.247Z,12.88
2022-12-09T21:10:10.346Z,12.25
2022-12-09T21:12:39.742Z,12.02
2022-12-09T21:15:09.470Z,13.15
2022-12-09T21:17:38.631Z,12.75
2022-12-09T21:20:08.771Z,13.00
2022-12-09T21:22:38.269Z,13.05
2022-12-09T21:25:08.095Z,13.30
2022-12-09T21:27:37.394Z,12.50
2022-12-09T21:30:09.161Z,13.50
2022-12-09T21:32:40.297Z,12.10
2022-12-09T21:35:10.697Z,14.02
2022-12-09T21:37:39.897Z,13.77
2022-12-09T21:40:09.745Z,14.40
2022-12-09T21:42:39.185Z,14.10
2022-12-09T21:45:08.873Z,14.43
2022-12-09T21:47:40.382Z,13.45
2022-12-09T21:50:11.082Z,13.48
2022-12-09T21:52:40.258Z,13.20
2022-12-09T21:55:09.935Z,13.73
2022-12-09T21:57:39.108Z,13.23
2022-12-09T22:00:09.899Z,14.38
2022-12-09T22:02:39.277Z,14.05
2022-12-09T22:05:21.991Z,14.05
2022-12-09T22:07:51.684Z,14.20
2022-12-09T22:10:20.912Z,13.00
2022-12-09T22:12:50.072Z,14.20
2022-12-09T22:15:19.362Z,12.68
2022-12-09T22:17:49.081Z,14.48
2022-12-09T22:23:07.442Z,14.02
2022-12-09T22:25:39.008Z,13.77
2022-12-09T22:28:08.191Z,12.90
2022-12-09T22:30:38.326Z,13.98
2022-12-09T22:33:07.477Z,12.85
2022-12-09T22:35:36.660Z,11.93
2022-12-09T22:38:12.870Z,14.73
2022-12-09T22:40:43.791Z,13.13
2022-12-09T22:43:12.973Z,14.68
2022-12-09T22:45:42.075Z,14.25
2022-12-09T22:48:11.251Z,15.20
2022-12-09T22:50:40.373Z,14.60
2022-12-09T22:53:09.514Z,15.50
2022-12-09T22:55:38.707Z,15.68
2022-12-09T22:58:07.843Z,16.38
2022-12-09T23:00:36.984Z,15.15
2022-12-09T23:03:06.289Z,18.45
2022-12-09T23:05:39.031Z,18.15
2022-12-09T23:08:08.648Z,19.05
2022-12-09T23:10:37.843Z,20.33
2022-12-09T23:13:08.341Z,20.33
2022-12-09T23:15:38.055Z,22.73
2022-12-09T23:18:07.274Z,23.88
2022-12-09T23:20:36.490Z,23.60
2022-12-09T23:23:05.683Z,26.65
2022-12-09T23:25:35.519Z,29.95
2022-12-09T23:28:05.382Z,27.60
2022-12-09T23:30:35.415Z,29.63
2022-12-09T23:33:04.967Z,27.45
2022-12-09T23:35:39.541Z,26.80
2022-12-09T23:38:09.126Z,24.63
2022-12-09T23:40:38.256Z,26.02
2022-12-09T23:43:07.386Z,24.83
2022-12-09T23:45:36.609Z,24.67
2022-12-09T23:48:06.245Z,23.75
2022-12-09T23:50:35.394Z,22.02
2022-12-09T23:53:04.885Z,24.52
2022-12-09T23:55:34.045Z,23.83
2022-12-09T23:58:03.160Z,23.02
